Tensho — JD4153 — position and weather

sailwx.info

Track history (hours):
 
Tides and Currents Weather Stations Pressure Air Temp Water Temp Dewpoint Dewpoint Depression Visibility Wind Speed Wind Dir Waves Ship Positions

Tensho

Last reported at 2018-Jan-23 01:04 UTC. Time now 2018-Jan-23 01:54 UTC.
Position N 33°51' E 132°34'.

Length 62 m; draft 3.5 m.

Type: Cargo ship. MMSI: 431009101.

Date/timePositionNaut miles runAvg speedWind from/ knotsBaromVisibWave heightAir tempDewpointWater temp
2018-Jan-23 01:04N 33°51' E 132°34'311.0
2018-Jan-23 00:46N 33°48' E 132°31'1210.7
2018-Jan-22 23:40N 33°40' E 132°21'2110.4
2018-Jan-22 21:40N 33°25' E 132°04'310.2
2018-Jan-22 21:20N 33°23' E 132°01'3 9.0
2018-Jan-22 21:00N 33°20' E 131°60'7 1.4
2018-Jan-22 16:05N 33°20' E 131°52'211.6
2018-Jan-22 15:57N 33°21' E 131°51'511.5
2018-Jan-22 15:30N 33°26' E 131°50'611.1
2018-Jan-22 14:58N 33°32' E 131°48'510.9
2018-Jan-22 14:30N 33°37' E 131°45'611.2
2018-Jan-22 14:00N 33°41' E 131°41'510.6
2018-Jan-22 13:30N 33°43' E 131°35'511.0
2018-Jan-22 13:00N 33°44' E 131°28'611.1
2018-Jan-22 12:30N 33°45' E 131°22'611.2
2018-Jan-22 12:00N 33°46' E 131°15'611.3
2018-Jan-22 11:31N 33°48' E 131°09'510.7
2018-Jan-22 11:00N 33°48' E 131°02'2 4.0
2018-Jan-22 10:28N 33°48' E 130°60'0 0.0
2018-Jan-22 09:58N 33°48' E 130°60'0 0.0
2018-Jan-22 09:28N 33°48' E 130°60'0 0.0
2018-Jan-22 08:58N 33°48' E 130°60'0 0.0
2018-Jan-22 08:28N 33°48' E 130°60'0 0.0
2018-Jan-22 07:58N 33°48' E 130°60'0 0.0
2018-Jan-22 07:22N 33°48' E 130°60'0 0.0
2018-Jan-22 06:58N 33°48' E 130°60'0 0.0
2018-Jan-22 06:16N 33°48' E 130°60'0 0.0
2018-Jan-22 05:58N 33°48' E 130°60'0 0.0
2018-Jan-22 05:28N 33°48' E 130°60'0 0.0
2018-Jan-22 04:58N 33°48' E 130°60'0 0.0
2018-Jan-22 04:28N 33°48' E 130°60'0 0.0
2018-Jan-22 03:49N 33°48' E 130°60'0 0.0
2018-Jan-22 03:28N 33°48' E 130°60'0 0.0
2018-Jan-22 02:58N 33°48' E 130°60'0 0.0
2018-Jan-22 02:22N 33°48' E 130°60'0 0.0
2018-Jan-22 01:58N 33°48' E 130°60'0 0.0
2018-Jan-22 01:28N 33°48' E 130°60'0 0.0
2018-Jan-22 00:58N 33°48' E 130°60'0 0.0
2018-Jan-22 00:28N 33°48' E 130°60'0 0.0
2018-Jan-21 23:58N 33°48' E 130°60'0 0.0
2018-Jan-21 23:28N 33°48' E 130°60'0 0.0
2018-Jan-21 22:58N 33°48' E 130°60'0 0.1
2018-Jan-21 22:31N 33°48' E 130°60'2 3.2
2018-Jan-21 22:00N 33°46' E 131°00'0 0.3
2018-Jan-21 21:28N 33°46' E 130°60'0 0.0
2018-Jan-21 10:00N 33°46' E 130°60'2 4.8
2018-Jan-21 09:30N 33°48' E 131°02'510.3
2018-Jan-21 09:01N 33°48' E 131°08'510.6
2018-Jan-21 08:31N 33°47' E 131°14'510.4
2018-Jan-21 08:00N 33°46' E 131°20'510.2
2018-Jan-21 07:30N 33°45' E 131°26'5 9.8
2018-Jan-21 06:59N 33°43' E 131°32'5 9.7
2018-Jan-21 06:30N 33°42' E 131°38'4 8.7
2018-Jan-21 06:01N 33°40' E 131°42'5 9.2
2018-Jan-21 05:30N 33°37' E 131°46'5 9.1
2018-Jan-21 05:01N 33°33' E 131°48'5 9.8
2018-Jan-21 04:30N 33°28' E 131°52'510.0
2018-Jan-21 04:01N 33°24' E 131°54'610.9
2018-Jan-21 03:30N 33°19' E 131°58'610.3
2018-Jan-21 02:54N 33°14' E 132°02'332 9.5
2018-Jan-19 15:59N 34°33' E 138°31'610.8
2018-Jan-19 15:26N 34°34' E 138°38'510.8
2018-Jan-19 14:59N 34°34' E 138°44'510.6
2018-Jan-19 14:30N 34°35' E 138°50'5 9.3
2018-Jan-19 14:00N 34°36' E 138°56'6 8.8
2018-Jan-19 13:20N 34°40' E 139°01'410.2
2018-Jan-19 12:58N 34°43' E 139°04'510.1
2018-Jan-19 12:28N 34°46' E 139°08'510.1
2018-Jan-19 11:59N 34°50' E 139°12'6 9.7
2018-Jan-19 11:19N 34°55' E 139°17'3 8.9
2018-Jan-19 10:57N 34°56' E 139°20'4 9.3
2018-Jan-19 10:30N 34°59' E 139°25'5 9.2
2018-Jan-19 10:00N 35°01' E 139°30'5 9.8
2018-Jan-19 09:30N 35°04' E 139°35'510.6
2018-Jan-19 09:01N 35°06' E 139°40'510.6
2018-Jan-19 08:30N 35°10' E 139°45'510.1
2018-Jan-19 08:00N 35°15' E 139°46'510.1
2018-Jan-19 07:31N 35°19' E 139°43'510.0
2018-Jan-19 07:01N 35°24' E 139°43'5 9.2
2018-Jan-19 06:30N 35°29' E 139°42'1 2.6
2018-Jan-19 05:58N 35°30' E 139°43'0 0.0
2018-Jan-19 05:25N 35°30' E 139°43'0 0.0
2018-Jan-19 04:58N 35°30' E 139°43'0 0.0
2018-Jan-19 04:28N 35°30' E 139°43'0 0.0
2018-Jan-19 03:58N 35°30' E 139°43'2 3.4
2018-Jan-19 03:30N 35°30' E 139°45'4 7.4
2018-Jan-19 03:00N 35°30' E 139°49'4 7.6
2018-Jan-19 02:29N 35°33' E 139°53'711.5
2018-Jan-19 01:54N 35°38' E 139°58'0 0.0
2018-Jan-18 20:46N 35°38' E 139°59'2 4.8
2018-Jan-18 20:21N 35°36' E 139°57'3 9.6
2018-Jan-18 19:59N 35°33' E 139°55'510.1
2018-Jan-18 19:30N 35°29' E 139°52'510.1
2018-Jan-18 19:00N 35°25' E 139°48'510.1
2018-Jan-18 18:31N 35°21' E 139°45'5 9.4
2018-Jan-18 18:00N 35°16' E 139°46'510.0
2018-Jan-18 17:30N 35°11' E 139°47'5 9.9
2018-Jan-18 17:00N 35°07' E 139°46'5 9.5
2018-Jan-18 16:30N 35°02' E 139°44'4 8.9
2018-Jan-18 16:00N 34°59' E 139°40'510.1
2018-Jan-18 15:28N 34°56' E 139°34'910.9
2018-Jan-18 14:38N 34°52' E 139°24'211.2
2018-Jan-18 14:28N 34°51' E 139°23'611.6
2018-Jan-18 14:00N 34°48' E 139°17'1411.3
2018-Jan-18 12:47N 34°40' E 139°04'410.9
2018-Jan-18 12:25N 34°37' E 138°60'1010.8
2018-Jan-18 11:28N 34°34' E 138°48'5 9.9
2018-Jan-18 10:57N 34°33' E 138°42'510.1
2018-Jan-18 10:30N 34°32' E 138°36'510.2
2018-Jan-18 10:00N 34°30' E 138°30'610.3
2018-Jan-18 09:27N 34°29' E 138°24'510.2
2018-Jan-18 09:00N 34°28' E 138°18'  
Track history (hours):
 
Tides and Currents Weather Stations Pressure Air Temp Water Temp Dewpoint Dewpoint Depression Visibility Wind Speed Wind Dir Waves Ship Positions

Tensho

Last reported at 2018-Jan-23 01:04 UTC. Time now 2018-Jan-23 01:54 UTC.
Position N 33°51' E 132°34'.

Length 62 m; draft 3.5 m.

Type: Cargo ship. MMSI: 431009101.

Date/timePositionNaut miles runAvg speedWind from/ knotsBaromVisibWave heightAir tempDewpointWater temp
2018-Jan-23 01:04N 33°51' E 132°34'311.0
2018-Jan-23 00:46N 33°48' E 132°31'1210.7
2018-Jan-22 23:40N 33°40' E 132°21'2110.4
2018-Jan-22 21:40N 33°25' E 132°04'310.2
2018-Jan-22 21:20N 33°23' E 132°01'3 9.0
2018-Jan-22 21:00N 33°20' E 131°60'7 1.4
2018-Jan-22 16:05N 33°20' E 131°52'211.6
2018-Jan-22 15:57N 33°21' E 131°51'511.5
2018-Jan-22 15:30N 33°26' E 131°50'611.1
2018-Jan-22 14:58N 33°32' E 131°48'510.9
2018-Jan-22 14:30N 33°37' E 131°45'611.2
2018-Jan-22 14:00N 33°41' E 131°41'510.6
2018-Jan-22 13:30N 33°43' E 131°35'511.0
2018-Jan-22 13:00N 33°44' E 131°28'611.1
2018-Jan-22 12:30N 33°45' E 131°22'611.2
2018-Jan-22 12:00N 33°46' E 131°15'611.3
2018-Jan-22 11:31N 33°48' E 131°09'510.7
2018-Jan-22 11:00N 33°48' E 131°02'2 4.0
2018-Jan-22 10:28N 33°48' E 130°60'0 0.0
2018-Jan-22 09:58N 33°48' E 130°60'0 0.0
2018-Jan-22 09:28N 33°48' E 130°60'0 0.0
2018-Jan-22 08:58N 33°48' E 130°60'0 0.0
2018-Jan-22 08:28N 33°48' E 130°60'0 0.0
2018-Jan-22 07:58N 33°48' E 130°60'0 0.0
2018-Jan-22 07:22N 33°48' E 130°60'0 0.0
2018-Jan-22 06:58N 33°48' E 130°60'0 0.0
2018-Jan-22 06:16N 33°48' E 130°60'0 0.0
2018-Jan-22 05:58N 33°48' E 130°60'0 0.0
2018-Jan-22 05:28N 33°48' E 130°60'0 0.0
2018-Jan-22 04:58N 33°48' E 130°60'0 0.0
2018-Jan-22 04:28N 33°48' E 130°60'0 0.0
2018-Jan-22 03:49N 33°48' E 130°60'0 0.0
2018-Jan-22 03:28N 33°48' E 130°60'0 0.0
2018-Jan-22 02:58N 33°48' E 130°60'0 0.0
2018-Jan-22 02:22N 33°48' E 130°60'0 0.0
2018-Jan-22 01:58N 33°48' E 130°60'0 0.0
2018-Jan-22 01:28N 33°48' E 130°60'0 0.0
2018-Jan-22 00:58N 33°48' E 130°60'0 0.0
2018-Jan-22 00:28N 33°48' E 130°60'0 0.0
2018-Jan-21 23:58N 33°48' E 130°60'0 0.0
2018-Jan-21 23:28N 33°48' E 130°60'0 0.0
2018-Jan-21 22:58N 33°48' E 130°60'0 0.1
2018-Jan-21 22:31N 33°48' E 130°60'2 3.2
2018-Jan-21 22:00N 33°46' E 131°00'0 0.3
2018-Jan-21 21:28N 33°46' E 130°60'0 0.0
2018-Jan-21 10:00N 33°46' E 130°60'2 4.8
2018-Jan-21 09:30N 33°48' E 131°02'510.3
2018-Jan-21 09:01N 33°48' E 131°08'510.6
2018-Jan-21 08:31N 33°47' E 131°14'510.4
2018-Jan-21 08:00N 33°46' E 131°20'510.2
2018-Jan-21 07:30N 33°45' E 131°26'5 9.8
2018-Jan-21 06:59N 33°43' E 131°32'5 9.7
2018-Jan-21 06:30N 33°42' E 131°38'4 8.7
2018-Jan-21 06:01N 33°40' E 131°42'5 9.2
2018-Jan-21 05:30N 33°37' E 131°46'5 9.1
2018-Jan-21 05:01N 33°33' E 131°48'5 9.8
2018-Jan-21 04:30N 33°28' E 131°52'510.0
2018-Jan-21 04:01N 33°24' E 131°54'610.9
2018-Jan-21 03:30N 33°19' E 131°58'610.3
2018-Jan-21 02:54N 33°14' E 132°02'332 9.5
2018-Jan-19 15:59N 34°33' E 138°31'610.8
2018-Jan-19 15:26N 34°34' E 138°38'510.8
2018-Jan-19 14:59N 34°34' E 138°44'510.6
2018-Jan-19 14:30N 34°35' E 138°50'5 9.3
2018-Jan-19 14:00N 34°36' E 138°56'6 8.8
2018-Jan-19 13:20N 34°40' E 139°01'410.2
2018-Jan-19 12:58N 34°43' E 139°04'510.1
2018-Jan-19 12:28N 34°46' E 139°08'510.1
2018-Jan-19 11:59N 34°50' E 139°12'6 9.7
2018-Jan-19 11:19N 34°55' E 139°17'3 8.9
2018-Jan-19 10:57N 34°56' E 139°20'4 9.3
2018-Jan-19 10:30N 34°59' E 139°25'5 9.2
2018-Jan-19 10:00N 35°01' E 139°30'5 9.8
2018-Jan-19 09:30N 35°04' E 139°35'510.6
2018-Jan-19 09:01N 35°06' E 139°40'510.6
2018-Jan-19 08:30N 35°10' E 139°45'510.1
2018-Jan-19 08:00N 35°15' E 139°46'510.1
2018-Jan-19 07:31N 35°19' E 139°43'510.0
2018-Jan-19 07:01N 35°24' E 139°43'5 9.2
2018-Jan-19 06:30N 35°29' E 139°42'1 2.6
2018-Jan-19 05:58N 35°30' E 139°43'0 0.0
2018-Jan-19 05:25N 35°30' E 139°43'0 0.0
2018-Jan-19 04:58N 35°30' E 139°43'0 0.0
2018-Jan-19 04:28N 35°30' E 139°43'0 0.0
2018-Jan-19 03:58N 35°30' E 139°43'2 3.4
2018-Jan-19 03:30N 35°30' E 139°45'4 7.4
2018-Jan-19 03:00N 35°30' E 139°49'4 7.6
2018-Jan-19 02:29N 35°33' E 139°53'711.5
2018-Jan-19 01:54N 35°38' E 139°58'0 0.0
2018-Jan-18 20:46N 35°38' E 139°59'2 4.8
2018-Jan-18 20:21N 35°36' E 139°57'3 9.6
2018-Jan-18 19:59N 35°33' E 139°55'510.1
2018-Jan-18 19:30N 35°29' E 139°52'510.1
2018-Jan-18 19:00N 35°25' E 139°48'510.1
2018-Jan-18 18:31N 35°21' E 139°45'5 9.4
2018-Jan-18 18:00N 35°16' E 139°46'510.0
2018-Jan-18 17:30N 35°11' E 139°47'5 9.9
2018-Jan-18 17:00N 35°07' E 139°46'5 9.5
2018-Jan-18 16:30N 35°02' E 139°44'4 8.9
2018-Jan-18 16:00N 34°59' E 139°40'510.1
2018-Jan-18 15:28N 34°56' E 139°34'910.9
2018-Jan-18 14:38N 34°52' E 139°24'211.2
2018-Jan-18 14:28N 34°51' E 139°23'611.6
2018-Jan-18 14:00N 34°48' E 139°17'1411.3
2018-Jan-18 12:47N 34°40' E 139°04'410.9
2018-Jan-18 12:25N 34°37' E 138°60'1010.8
2018-Jan-18 11:28N 34°34' E 138°48'5 9.9
2018-Jan-18 10:57N 34°33' E 138°42'510.1
2018-Jan-18 10:30N 34°32' E 138°36'510.2
2018-Jan-18 10:00N 34°30' E 138°30'610.3
2018-Jan-18 09:27N 34°29' E 138°24'510.2
2018-Jan-18 09:00N 34°28' E 138°18'  

Dump ship's entire track history